Alexandria, New Hampshire
Current Conditions -  °F | °C
As of 2:55 PM on Sunday 23 Nov 2014 (Local Time) from K1P1 Reporting Station
Scattered Clouds Scattered Clouds  
Wind Chill: 52°   Ceiling: Unl
Heat Index: 52°   Visibility: 10mi
Dew Point: 44°   Wind: 3mph
Humidity: 76%   Direction: 270°W
Pressure: 30.07"   Gusts: NA
Location:  43.6264°N, 71.7826°W
Report Text: K1P1 231955Z AUTO 27003KT 10SM SCT029 11/07 A3007 RMK AO2 T01090068
Loading
Personal Weather Stations






























Interactive Weather Map New forecast layout! Learn more

10-Day Weather Forecast

Advertisements
Track Severe Weather on mobile